createdAt,value
2022-09-02T00:04:40.432Z,49.58
2022-09-02T00:34:44.609Z,50.82
2022-09-02T01:04:48.750Z,52.67
2022-09-02T01:34:52.881Z,52.48
2022-09-02T02:04:57.050Z,53.33
2022-09-02T02:35:01.453Z,53.70
2022-09-02T03:05:07.444Z,55.09
2022-09-02T03:35:15.670Z,56.80
2022-09-02T04:05:20.122Z,57.45
2022-09-02T04:35:24.273Z,58.38
2022-09-02T05:05:28.262Z,59.29
2022-09-02T05:35:32.666Z,58.98
2022-09-02T06:05:38.533Z,57.67
2022-09-02T06:35:44.805Z,54.56
2022-09-02T07:05:49.359Z,54.56
2022-09-02T07:35:53.496Z,49.85
2022-09-02T08:05:58.242Z,40.76
2022-09-02T08:36:05.567Z,35.38
2022-09-02T09:06:15.959Z,30.06
2022-09-02T09:36:20.104Z,27.22
2022-09-02T10:06:25.991Z,21.96
2022-09-02T10:36:36.302Z,23.50
2022-09-02T11:07:01.398Z,20.17
2022-09-02T11:37:07.657Z,20.92
2022-09-02T12:07:29.943Z,22.89
2022-09-02T12:37:54.302Z,21.87
2022-09-02T13:08:29.744Z,21.38
2022-09-02T13:38:34.006Z,25.44
2022-09-02T14:08:38.369Z,21.99
2022-09-02T14:38:54.365Z,22.70
2022-09-02T15:08:58.530Z,22.85
2022-09-02T15:39:02.472Z,24.00
2022-09-02T16:09:07.407Z,25.58
2022-09-02T16:39:12.499Z,29.24
2022-09-02T17:09:17.456Z,30.55
2022-09-02T17:39:22.247Z,33.84
2022-09-02T18:09:27.402Z,34.32
2022-09-02T18:39:54.051Z,38.01
2022-09-02T19:09:58.658Z,41.08
2022-09-02T19:40:09.474Z,40.48
2022-09-02T20:10:13.948Z,41.42
2022-09-02T20:40:34.693Z,43.04
2022-09-02T21:10:41.682Z,43.63
2022-09-02T21:40:52.552Z,44.30
2022-09-02T22:11:06.053Z,44.70
2022-09-02T22:41:19.946Z,44.76
2022-09-02T23:11:29.624Z,46.15
2022-09-02T23:41:36.227Z,48.02
